Overview Statistics Trail Chart Weather Telemetry Raw packets
 

This is the latest recevied weather packets stored in our database for station/object NI4CE-11. If no packets are shown the sender has not sent any weather packets the latest 10 day(s).

<< 152 153 154 155 156 157 158 >>
Time Temp. Humidity Pressure Rain* Wind** Luminosity Snow
1787742267 25.56° C 100% 1017 hPa 0 mm - - -
1787741967 24.44° C 100% 1016.9 hPa 0 mm - - -
1787741667 23.89° C 100% 1016.8 hPa 0 mm - - -
1787741367 22.78° C 100% 1016.8 hPa 0 mm - - -
1787741067 23.33° C 100% 1016.6 hPa 0 mm - - -
1787740767 23.89° C 100% 1016.5 hPa 0 mm - - -
1787740600 26.11° C 100% 1016.4 hPa 0 mm - - -
1787740467 26.11° C 100% 1016.4 hPa 0 mm - - -
1787740167 26.11° C 100% 1016.3 hPa 0 mm - - -
1787739955 26.11° C 100% 1016.3 hPa 0 mm - - -
1787739867 26.11° C 100% 1016.3 hPa 0 mm - - -
1787739567 25.56° C 100% 1016.3 hPa 0 mm - - -
1787739267 24.44° C 100% 1016.3 hPa 0 mm - - -
1787739072 26.11° C 100% 1016.3 hPa 0 mm - - -
1787738967 26.11° C 100% 1016.3 hPa 0 mm - - -
1787738915 22.78° C 100% 1016.8 hPa 0 mm - - -
1787738667 26.11° C 100% 1016.2 hPa 0 mm - - -
1787738466 26.11° C 100% 1016.2 hPa 0 mm - - -
1787738367 26.11° C 100% 1016.2 hPa 0 mm - - -
1787738067 25° C 100% 1016.1 hPa 0 mm - - -
1787737767 23.33° C 100% 1016 hPa 0 mm - - -
1787737467 24.44° C 100% 1015.8 hPa 0 mm - - -
1787737167 25° C 100% 1015.8 hPa 0 mm - - -
1787736868 25.56° C 100% 1015.9 hPa 0 mm - - -
1787736599 25° C 100% 1015.8 hPa 0 mm - - -

* Rain latest hour (hover to see other rain measurements)
** Current wind speed in m/s (hover to see current wind gust speed)